Time;durP1;ratioP1;P1;durP2;ratioP2;P2;SDS_P1;SDS_P2;PMS_P1;PMS_P2;Temp;Humidity;BMP_temperature;BMP_pressure;BME280_temperature;BME280_humidity;BME280_pressure;Samples;Min_cycle;Max_cycle;Signal;HPM_P1;HPM_P2
2022/08/16 00:01:24;;;;;;;0.40;0.40;;;20.70;73.60;;;21.30;58.17;94309.50;5024881;28;20242;-80
2022/08/16 00:04:00;;;;;;;0.40;0.40;;;20.70;73.30;;;21.35;58.48;94307.63;5030614;28;20203;-79
2022/08/16 00:06:31;;;;;;;0.40;0.40;;;20.80;73.00;;;21.40;58.24;94306.81;5021733;28;20221;-80
2022/08/16 00:08:58;;;;;;;0.40;0.40;;;20.80;73.00;;;21.43;58.02;94307.06;5032245;28;20700;-80
2022/08/16 00:11:26;;;;;;;0.40;0.40;;;20.90;72.80;;;21.48;58.08;94298.22;5003357;28;20286;-79
2022/08/16 00:13:53;;;;;;;0.40;0.40;;;20.90;72.80;;;21.50;57.81;94297.94;5011046;28;20216;-79
2022/08/16 00:16:26;;;;;;;0.40;0.40;;;21.00;72.50;;;21.50;57.92;94293.41;5051039;28;20285;-79
2022/08/16 00:19:22;;;;;;;0.47;0.47;;;21.00;72.40;;;21.49;57.85;94299.81;5046618;28;20274;-80
2022/08/16 00:21:51;;;;;;;0.32;0.32;;;21.10;72.40;;;21.48;57.80;94298.22;5031110;28;20215;-80
2022/08/16 00:24:28;;;;;;;0.50;0.50;;;21.00;72.30;;;21.47;57.92;94298.50;5017913;28;20565;-79
2022/08/16 00:27:03;;;;;;;0.40;0.40;;;21.00;72.20;;;21.45;57.40;94298.78;5040181;28;20235;-80
2022/08/16 00:29:31;;;;;;;0.40;0.40;;;21.00;72.20;;;21.41;57.71;94292.38;5031486;28;20232;-80
2022/08/16 00:32:03;;;;;;;0.40;0.40;;;21.00;72.10;;;21.38;57.83;94291.06;5030793;28;20220;-78
2022/08/16 00:34:36;;;;;;;0.30;0.30;;;20.90;72.10;;;21.33;57.62;94280.41;5030185;28;20649;-80
2022/08/16 00:37:23;;;;;;;0.57;0.57;;;20.90;72.10;;;21.27;57.37;94284.19;5048698;28;20223;-79
2022/08/16 00:40:25;;;;;;;0.40;0.40;;;20.90;72.20;;;21.19;57.83;94287.41;5031239;28;20195;-80
2022/08/16 00:43:15;;;;;;;0.40;0.40;;;20.80;72.10;;;21.13;57.68;94285.84;5034670;28;20204;-79
2022/08/16 00:46:06;;;;;;;0.30;0.30;;;20.80;71.90;;;21.09;57.81;94282.94;5016868;28;20654;-79
2022/08/16 00:48:55;;;;;;;0.30;0.30;;;20.70;71.80;;;21.00;57.54;94284.59;5050748;28;20201;-80
2022/08/16 00:51:25;;;;;;;0.40;0.40;;;20.70;72.00;;;21.03;58.24;94284.84;5043260;28;20385;-80
2022/08/16 00:53:57;;;;;;;0.43;0.43;;;20.60;72.20;;;21.08;58.08;94282.16;5015604;28;20202;-80
2022/08/16 00:56:33;;;;;;;0.40;0.40;;;20.70;72.40;;;21.12;57.88;94274.41;5014001;28;20216;-80
2022/08/16 00:59:24;;;;;;;0.45;0.45;;;20.70;72.50;;;21.19;57.98;94274.91;5030188;28;20201;-79
2022/08/16 01:01:53;;;;;;;0.32;0.32;;;20.70;72.50;;;21.26;58.19;94287.94;5015199;28;20234;-79
2022/08/16 01:04:25;;;;;;;0.30;0.30;;;20.70;72.70;;;21.30;58.05;94286.31;5046612;28;20195;-80
2022/08/16 01:06:59;;;;;;;0.30;0.30;;;20.80;72.80;;;21.39;58.08;94306.00;5020941;28;20223;-80
2022/08/16 01:09:32;;;;;;;0.40;0.40;;;20.90;72.80;;;21.46;57.86;94303.03;5041670;28;20269;-79
2022/08/16 01:12:03;;;;;;;0.30;0.30;;;20.90;72.70;;;21.51;58.39;94300.34;5014570;28;20231;-80
2022/08/16 01:14:47;;;;;;;0.40;0.40;;;21.00;72.60;;;21.52;58.17;94296.59;5034951;28;20203;-80
2022/08/16 01:17:18;;;;;;;0.40;0.40;;;21.10;72.60;;;21.56;58.03;94299.50;5010788;28;20259;-80
2022/08/16 01:19:55;;;;;;;0.40;0.40;;;21.10;72.50;;;21.55;58.19;94303.25;5004548;28;20492;-80
2022/08/16 01:22:52;;;;;;;0.40;0.40;;;21.10;72.40;;;21.50;58.19;94298.75;5021469;28;20297;-80
2022/08/16 01:25:28;;;;;;;0.60;0.60;;;21.20;72.20;;;21.48;58.25;94297.41;5045328;28;20225;-80
2022/08/16 01:28:07;;;;;;;0.40;0.40;;;21.20;72.30;;;21.48;58.41;94300.88;5030427;28;20314;-80
2022/08/16 01:30:39;;;;;;;0.50;0.50;;;21.10;72.30;;;21.48;58.42;94316.88;5021863;28;20199;-79
2022/08/16 01:33:18;;;;;;;0.32;0.32;;;21.20;72.40;;;21.46;58.18;94324.38;5034307;28;20596;-79
2022/08/16 01:36:08;;;;;;;0.40;0.40;;;21.20;72.30;;;21.43;57.89;94320.41;5015260;28;20208;-79
2022/08/16 01:38:46;;;;;;;0.50;0.50;;;21.10;72.20;;;21.42;57.94;94318.81;5004691;28;20287;-80
2022/08/16 01:41:31;;;;;;;0.50;0.50;;;21.10;72.20;;;21.38;58.19;94325.75;5009950;28;20235;-80
2022/08/16 01:44:08;;;;;;;0.47;0.47;;;21.10;72.20;;;21.31;57.69;94325.22;5019730;28;21025;-80
2022/08/16 01:46:43;;;;;;;0.40;0.40;;;21.10;72.10;;;21.28;58.41;94331.91;4994962;28;20216;-79
2022/08/16 01:49:39;;;;;;;0.40;0.40;;;21.10;72.20;;;21.21;58.34;94338.63;4983324;28;20930;-79
2022/08/16 01:52:26;;;;;;;0.50;0.50;;;21.00;71.90;;;21.17;57.87;94335.72;5013304;28;20223;-79
2022/08/16 01:55:21;;;;;;;0.40;0.40;;;20.90;71.90;;;21.13;58.03;94339.19;5024751;28;20727;-79
2022/08/16 01:57:51;;;;;;;0.40;0.40;;;20.90;72.00;;;21.10;57.90;94335.19;5015122;28;20574;-80
2022/08/16 02:00:23;;;;;;;0.45;0.45;;;20.80;71.80;;;21.07;58.31;94333.09;5010401;28;20568;-79
2022/08/16 02:02:57;;;;;;;0.40;0.40;;;20.80;71.90;;;21.02;58.38;94349.09;5029689;28;20223;-79
2022/08/16 02:05:25;;;;;;;0.40;0.40;;;20.80;71.90;;;21.01;57.92;94360.84;4999036;28;20199;-79
2022/08/16 02:07:59;;;;;;;0.40;0.40;;;20.80;71.90;;;20.98;58.38;94362.16;5021270;28;20585;-79
2022/08/16 02:10:27;;;;;;;0.40;0.40;;;20.70;71.90;;;20.97;58.05;94362.44;5019580;28;20215;-80
2022/08/16 02:12:56;;;;;;;0.40;0.40;;;20.70;71.90;;;20.95;57.95;94374.16;5035335;28;20216;-79
2022/08/16 02:15:32;;;;;;;0.40;0.40;;;20.70;71.90;;;20.93;58.11;94372.84;4998498;28;20202;-79
2022/08/16 02:18:10;;;;;;;0.40;0.40;;;20.70;71.90;;;20.88;58.00;94362.97;4994716;28;20195;-79
2022/08/16 02:20:42;;;;;;;0.40;0.40;;;20.60;71.80;;;20.86;57.63;94370.47;5036167;28;20219;-80
2022/08/16 02:23:12;;;;;;;0.47;0.47;;;20.60;71.80;;;20.83;58.15;94378.19;5028412;28;20732;-80
2022/08/16 02:25:46;;;;;;;0.40;0.40;;;20.60;71.90;;;20.77;57.90;94378.19;5034342;28;20232;-80
2022/08/16 02:28:23;;;;;;;0.40;0.40;;;20.60;71.80;;;20.79;57.75;94383.28;5046374;28;20693;-80
2022/08/16 02:30:52;;;;;;;0.40;0.40;;;20.60;71.80;;;20.74;58.32;94389.41;5033023;28;20669;-80
2022/08/16 02:33:22;;;;;;;0.40;0.40;;;20.50;71.80;;;20.73;57.75;94374.47;5021976;28;20200;-79
2022/08/16 02:36:13;;;;;;;0.40;0.40;;;20.50;71.80;;;20.71;58.19;94379.22;5029186;28;20216;-80
2022/08/16 02:39:01;;;;;;;0.40;0.40;;;20.50;71.70;;;20.68;58.31;94379.78;5042298;28;20288;-79
2022/08/16 02:41:29;;;;;;;0.40;0.40;;;20.50;71.70;;;20.68;58.26;94374.47;5040370;28;20223;-79
2022/08/16 02:43:57;;;;;;;0.40;0.40;;;20.50;71.70;;;20.60;57.88;94370.47;5030837;28;20665;-78
2022/08/16 02:46:24;;;;;;;0.40;0.40;;;20.40;71.70;;;20.65;58.11;94372.31;5015387;28;20215;-79
2022/08/16 02:49:01;;;;;;;0.43;0.43;;;20.40;71.70;;;20.64;58.23;94370.72;5025953;28;20316;-79
2022/08/16 02:51:29;;;;;;;0.40;0.40;;;20.40;71.70;;;20.62;58.16;94370.22;5025346;28;20251;-79
2022/08/16 02:53:59;;;;;;;0.38;0.38;;;20.40;71.70;;;20.60;57.78;94375.81;5032277;28;20200;-79
2022/08/16 02:56:28;;;;;;;0.40;0.40;;;20.40;71.60;;;20.61;58.06;94372.06;5036539;28;20237;-79
2022/08/16 02:59:00;;;;;;;0.40;0.40;;;20.40;71.70;;;20.60;57.68;94364.34;5034594;28;20218;-78
2022/08/16 03:01:37;;;;;;;0.40;0.40;;;20.40;71.60;;;20.63;58.20;94367.25;5018990;28;20227;-79
2022/08/16 03:04:11;;;;;;;0.40;0.40;;;20.40;72.50;;;20.64;58.04;94370.72;5021269;28;20234;-79
2022/08/16 03:06:58;;;;;;;0.40;0.40;;;20.40;71.50;;;20.62;57.65;94376.31;5048819;28;20250;-79
2022/08/16 03:09:47;;;;;;;0.40;0.40;;;20.40;71.50;;;20.62;57.47;94378.19;5025983;28;20207;-80
2022/08/16 03:12:20;;;;;;;0.40;0.40;;;20.40;71.40;;;20.62;57.75;94375.53;5030931;28;20227;-80
2022/08/16 03:14:58;;;;;;;0.43;0.43;;;20.40;71.50;;;20.57;57.72;94380.88;5035885;28;20290;-81
2022/08/16 03:17:25;;;;;;;0.45;0.45;;;20.30;71.40;;;20.56;57.75;94381.94;5013016;28;20216;-80
2022/08/16 03:20:05;;;;;;;0.43;0.43;;;20.30;71.40;;;20.50;57.22;94381.13;5031662;28;20238;-79
2022/08/16 03:22:38;;;;;;;0.50;0.50;;;20.20;71.30;;;20.44;57.37;94385.66;5023428;28;20265;-80
2022/08/16 03:25:14;;;;;;;0.50;0.50;;;20.20;71.30;;;20.38;57.64;94373.41;5027129;28;20202;-80
2022/08/16 03:27:52;;;;;;;0.40;0.40;;;20.10;71.40;;;20.28;57.54;94374.19;5018784;28;20243;-80
2022/08/16 03:30:29;;;;;;;0.40;0.40;;;20.10;71.40;;;20.25;57.99;94373.94;5038806;28;20282;-79
2022/08/16 03:33:01;;;;;;;0.40;0.40;;;20.10;71.40;;;20.20;58.08;94390.72;5047888;28;20203;-79
2022/08/16 03:35:39;;;;;;;0.47;0.47;;;20.00;71.40;;;20.15;57.75;94391.53;5026170;28;20207;-79
2022/08/16 03:38:25;;;;;;;0.40;0.40;;;19.90;71.40;;;20.08;58.19;94377.66;5031903;28;20677;-79
2022/08/16 03:41:05;;;;;;;0.50;0.50;;;19.90;71.50;;;20.06;58.21;94385.09;5046458;28;20684;-80
2022/08/16 03:43:54;;;;;;;0.40;0.40;;;19.90;71.60;;;20.02;57.95;94384.03;5035664;28;20664;-79
2022/08/16 03:46:24;;;;;;;0.40;0.40;;;19.80;71.50;;;19.98;57.83;94386.44;5032209;28;20224;-78
2022/08/16 03:49:13;;;;;;;0.50;0.50;;;19.80;71.60;;;19.94;58.06;94385.34;5035129;28;20712;-80
2022/08/16 03:51:44;;;;;;;0.43;0.43;;;19.70;71.50;;;19.95;58.03;94391.50;5031093;28;20234;-80
2022/08/16 03:54:19;;;;;;;0.43;0.43;;;19.70;71.70;;;19.91;57.82;94390.41;5022213;28;20215;-79
2022/08/16 03:56:49;;;;;;;0.40;0.40;;;19.70;71.70;;;19.92;57.91;94397.31;5017481;28;20303;-80
2022/08/16 03:59:28;;;;;;;0.40;0.40;;;19.70;71.80;;;19.91;58.34;94395.72;5032695;28;20188;-80
2022/08/16 04:02:00;;;;;;;0.50;0.50;;;19.70;71.80;;;19.89;58.25;94393.31;5033300;28;20224;-80
2022/08/16 04:04:30;;;;;;;0.50;0.50;;;19.60;71.90;;;19.87;57.67;94399.97;5018115;28;20553;-80
2022/08/16 04:07:03;;;;;;;0.43;0.43;;;19.60;71.80;;;19.85;58.37;94394.94;5014839;28;20247;-79
2022/08/16 04:09:35;;;;;;;0.40;0.40;;;19.60;71.90;;;19.84;58.17;94414.63;5016547;28;20205;-80
2022/08/16 04:12:06;;;;;;;0.50;0.50;;;19.60;72.00;;;19.84;58.20;94418.06;5015910;28;20692;-80
2022/08/16 04:14:53;;;;;;;0.40;0.40;;;19.50;72.00;;;19.82;58.60;94414.84;5018190;28;20641;-80
2022/08/16 04:17:21;;;;;;;0.50;0.50;;;19.50;72.10;;;19.83;57.88;94421.81;5044647;28;20215;-80
2022/08/16 04:19:52;;;;;;;0.40;0.40;;;19.50;72.10;;;19.82;58.25;94427.34;5041947;28;20704;-80
2022/08/16 04:22:24;;;;;;;0.40;0.40;;;19.50;72.10;;;19.80;58.80;94416.97;5005660;28;20247;-80
2022/08/16 04:24:57;;;;;;;0.40;0.40;;;19.50;72.20;;;19.81;58.49;94423.06;5046401;28;20290;-80
2022/08/16 04:27:32;;;;;;;0.40;0.40;;;19.50;72.20;;;19.81;58.03;94421.22;5031624;28;20707;-80
2022/08/16 04:30:02;;;;;;;0.50;0.50;;;19.50;72.20;;;19.82;58.75;94422.03;5046303;28;20216;-79
2022/08/16 04:32:35;;;;;;;0.40;0.40;;;19.50;72.20;;;19.80;58.53;94416.97;5015890;28;20226;-78
2022/08/16 04:35:15;;;;;;;0.50;0.50;;;19.50;72.20;;;19.80;58.68;94416.97;5027752;28;20206;-80
2022/08/16 04:37:45;;;;;;;0.40;0.40;;;19.50;72.20;;;19.79;58.56;94414.56;5032260;28;20312;-79
2022/08/16 04:40:21;;;;;;;0.50;0.50;;;19.50;72.20;;;19.83;58.71;94428.94;5015898;28;20242;-80
2022/08/16 04:42:53;;;;;;;0.50;0.50;;;19.50;72.30;;;19.84;58.07;94428.72;5015747;28;20649;-80
2022/08/16 04:45:25;;;;;;;0.40;0.40;;;19.50;72.40;;;19.88;58.55;94425.53;5015628;28;20204;-80
2022/08/16 04:48:09;;;;;;;0.40;0.40;;;19.50;72.30;;;19.89;58.90;94421.81;5033826;28;20236;-80
2022/08/16 04:50:52;;;;;;;0.40;0.40;;;19.60;72.40;;;19.91;58.45;94411.69;5017255;28;20817;-79
2022/08/16 04:53:25;;;;;;;0.50;0.50;;;19.60;72.50;;;19.96;58.46;94414.38;5033411;28;20552;-80
2022/08/16 04:55:54;;;;;;;0.40;0.40;;;19.60;72.50;;;20.00;58.51;94421.56;5039473;28;20215;-80
2022/08/16 04:58:24;;;;;;;0.60;0.60;;;19.70;72.60;;;20.04;58.42;94421.84;5033959;28;20683;-80
2022/08/16 05:01:11;;;;;;;0.45;0.45;;;19.70;72.50;;;20.09;58.53;94431.69;5056917;28;20223;-79
2022/08/16 05:03:42;;;;;;;0.40;0.40;;;19.70;72.50;;;20.14;58.68;94431.69;5026617;28;20218;-79
2022/08/16 05:06:37;;;;;;;0.40;0.40;;;19.80;72.70;;;20.17;58.73;94422.41;5058321;28;20311;-80
2022/08/16 05:09:17;;;;;;;0.40;0.40;;;19.80;72.70;;;20.20;58.37;94430.66;5024891;28;20223;-80
2022/08/16 05:11:49;;;;;;;0.40;0.40;;;19.90;72.70;;;20.26;58.76;94436.78;5040116;28;20735;-80
2022/08/16 05:14:24;;;;;;;0.50;0.50;;;19.90;72.70;;;20.29;58.44;94431.72;5047045;28;20691;-79
2022/08/16 05:17:12;;;;;;;0.40;0.40;;;20.00;72.70;;;;;;5033450;28;20235;-79
2022/08/16 05:19:40;;;;;;;0.40;0.40;;;20.00;72.60;;;20.40;58.60;94429.88;5023756;28;20545;-79
2022/08/16 05:22:24;;;;;;;0.40;0.40;;;20.10;72.70;;;20.44;58.92;94430.16;5038760;28;20238;-79
2022/08/16 05:24:56;;;;;;;0.40;0.40;;;20.10;72.50;;;20.48;58.59;94425.88;5023614;28;20199;-80
2022/08/16 05:27:25;;;;;;;0.40;0.40;;;20.20;72.50;;;20.51;58.11;94436.00;5032366;28;20207;-80
2022/08/16 05:29:54;;;;;;;0.40;0.40;;;20.30;72.60;;;20.59;58.79;94438.16;5013753;28;20310;-80
2022/08/16 05:32:26;;;;;;;0.40;0.40;;;20.30;72.50;;;20.68;58.31;94441.09;5032488;28;20310;-80
2022/08/16 05:35:06;;;;;;;0.50;0.50;;;20.40;72.50;;;20.73;58.38;94454.44;5034288;28;20254;-79
2022/08/16 05:37:40;;;;;;;0.40;0.40;;;20.50;72.50;;;20.85;57.98;94456.84;5018084;28;20231;-80
2022/08/16 05:40:13;;;;;;;0.40;0.40;;;20.60;72.30;;;20.96;58.37;94460.28;5035163;28;20218;-78
2022/08/16 05:42:42;;;;;;;0.40;0.40;;;20.70;72.30;;;21.10;57.97;94464.00;5034795;28;20225;-79
2022/08/16 05:45:16;;;;;;;0.43;0.43;;;20.80;72.30;;;21.23;57.63;94459.19;5051448;28;20202;-79
2022/08/16 05:47:51;;;;;;;0.50;0.50;;;20.90;72.00;;;21.39;57.71;94462.59;5034713;28;20267;-79
2022/08/16 05:50:57;;;;;;;0.40;0.40;;;21.10;72.10;;;21.56;57.92;94462.28;5048692;28;20243;-80
2022/08/16 05:53:24;;;;;;;0.40;0.40;;;21.30;72.30;;;21.70;57.39;94455.34;5032910;28;20631;-79
2022/08/16 05:56:08;;;;;;;0.40;0.40;;;21.40;71.90;;;21.88;57.28;94463.78;5032773;28;20359;-79
2022/08/16 05:58:39;;;;;;;0.40;0.40;;;21.60;71.90;;;21.96;56.95;94455.22;5049285;28;20224;-79
2022/08/16 06:01:08;;;;;;;0.40;0.40;;;21.70;71.40;;;22.09;57.01;94461.81;5033249;28;20640;-79
2022/08/16 06:03:38;;;;;;;0.40;0.40;;;21.80;71.30;;;22.18;56.71;94465.50;5033149;28;20650;-79
2022/08/16 06:06:28;;;;;;;0.40;0.40;;;21.90;71.00;;;22.23;56.42;94459.34;5034950;28;20231;-80
2022/08/16 06:08:57;;;;;;;0.52;0.52;;;22.00;71.00;;;22.22;56.40;94457.75;5034217;28;20313;-80
2022/08/16 06:11:25;;;;;;;0.30;0.30;;;22.00;70.90;;;22.26;56.50;94460.66;5034606;28;20384;-78
2022/08/16 06:13:58;;;;;;;0.40;0.40;;;22.10;70.80;;;22.25;56.05;94459.06;5034156;28;20214;-80
2022/08/16 06:16:38;;;;;;;0.30;0.30;;;22.10;70.70;;;22.27;56.20;94457.72;5048993;28;20246;-80
2022/08/16 06:19:05;;;;;;;0.38;0.38;;;22.10;70.70;;;22.27;56.63;94454.25;5018053;28;20202;-78
2022/08/16 06:21:37;;;;;;;0.40;0.40;;;22.10;70.60;;;22.31;55.78;94457.94;5034013;28;20709;-80
2022/08/16 06:24:05;;;;;;;0.40;0.40;;;22.20;70.20;;;22.37;56.09;94468.34;5034216;28;20285;-79
2022/08/16 06:26:53;;;;;;;0.50;0.50;;;22.20;70.30;;;22.36;55.22;94466.75;5034307;28;20227;-80
2022/08/16 06:29:27;;;;;;;0.40;0.40;;;22.30;69.90;;;22.33;55.61;94445.91;5018658;28;20593;-79
2022/08/16 06:31:54;;;;;;;0.38;0.38;;;22.30;70.00;;;22.45;55.64;94445.59;5017620;28;20224;-80
2022/08/16 06:34:25;;;;;;;0.43;0.43;;;22.30;69.80;;;22.52;55.48;94455.97;5018316;28;20200;-79
2022/08/16 06:37:13;;;;;;;0.40;0.40;;;22.40;69.80;;;22.55;55.33;94448.19;5034175;28;20207;-80
2022/08/16 06:39:42;;;;;;;0.50;0.50;;;22.40;69.90;;;22.60;55.37;94442.00;5034272;28;20215;-79
2022/08/16 06:42:32;;;;;;;0.40;0.40;;;22.40;69.60;;;22.65;55.16;94449.19;5019805;28;20271;-79
2022/08/16 06:45:36;;;;;;;0.30;0.30;;;22.50;69.80;;;22.70;55.70;94457.97;5045770;28;20256;-78
2022/08/16 06:48:15;;;;;;;0.35;0.35;;;22.50;69.80;;;22.77;55.85;94454.19;5019071;28;20737;-79
2022/08/16 06:50:46;;;;;;;0.40;0.40;;;22.60;70.00;;;22.82;55.64;94462.16;5050187;28;20208;-79
2022/08/16 06:53:15;;;;;;;0.40;0.40;;;22.60;69.90;;;22.90;55.21;94466.09;5050216;28;20231;-79
2022/08/16 06:55:59;;;;;;;0.50;0.50;;;22.70;69.60;;;22.90;54.33;94466.91;5033761;28;20314;-79
2022/08/16 06:58:37;;;;;;;0.40;0.40;;;22.80;68.80;;;22.93;53.32;94481.59;5019102;28;20262;-79
2022/08/16 07:01:09;;;;;;;0.30;0.30;;;22.80;68.50;;;22.95;53.76;94472.22;5033589;28;20234;-79
2022/08/16 07:03:48;;;;;;;0.38;0.38;;;22.90;68.70;;;23.08;54.25;94472.63;5018793;28;20208;-80
2022/08/16 07:06:30;;;;;;;0.40;0.40;;;22.90;68.70;;;23.10;54.10;94467.81;5033505;28;20231;-79
2022/08/16 07:09:01;;;;;;;0.40;0.40;;;23.00;68.80;;;23.18;53.63;94469.91;5033592;28;20327;-79
2022/08/16 07:11:37;;;;;;;0.40;0.40;;;23.00;68.30;;;23.26;53.91;94476.50;5033164;28;20220;-78
2022/08/16 07:14:21;;;;;;;0.30;0.30;;;23.10;68.40;;;23.38;53.47;94473.47;5033171;28;20218;-79
2022/08/16 07:16:56;;;;;;;0.30;0.30;;;23.10;68.10;;;23.45;53.53;94472.03;5033099;28;20216;-79
2022/08/16 07:19:27;;;;;;;0.40;0.40;;;23.20;68.20;;;23.52;52.56;94473.56;5033278;28;20286;-79
2022/08/16 07:22:17;;;;;;;0.22;0.22;;;23.30;67.40;;;23.57;52.78;94468.97;5036087;28;20700;-79
2022/08/16 07:25:12;;;;;;;0.38;0.38;;;23.40;68.00;;;23.66;51.86;94477.94;5020277;28;20200;-79
2022/08/16 07:27:42;;;;;;;0.40;0.40;;;23.40;67.00;;;23.74;52.47;94476.53;5016823;28;20224;-79
2022/08/16 07:30:15;;;;;;;0.40;0.40;;;23.60;67.20;;;23.79;50.79;94487.19;5033360;28;20227;-79
2022/08/16 07:33:04;;;;;;;0.50;0.50;;;23.60;67.20;;;23.84;51.54;94486.34;5045904;28;20235;-79
2022/08/16 07:35:36;;;;;;;0.30;0.30;;;23.70;66.70;;;23.96;51.79;94497.47;5041934;28;20215;-78
2022/08/16 07:38:11;;;;;;;0.50;0.50;;;23.70;66.40;;;24.03;50.89;94486.38;5051075;28;20245;-79
2022/08/16 07:40:54;;;;;;;0.30;0.30;;;23.80;66.50;;;24.10;51.06;94486.03;5050555;28;20597;-79
2022/08/16 07:43:38;;;;;;;0.30;0.30;;;23.90;66.60;;;24.15;49.57;94494.00;5051018;28;20288;-79
2022/08/16 07:46:08;;;;;;;0.57;0.57;;;24.00;65.70;;;24.22;49.31;94512.44;5050999;28;20219;-79
2022/08/16 07:48:57;;;;;;;0.30;0.30;;;24.10;65.60;;;24.27;49.71;94498.94;5037657;28;20723;-78
2022/08/16 07:51:35;;;;;;;0.30;0.30;;;24.10;65.70;;;24.36;49.52;94496.41;5051900;28;20236;-80
2022/08/16 07:54:07;;;;;;;0.40;0.40;;;24.20;65.50;;;24.45;50.08;94505.41;5033435;28;20686;-79
2022/08/16 07:56:43;;;;;;;0.40;0.40;;;24.20;65.70;;;24.51;49.75;94498.06;5067724;28;20220;-80
2022/08/16 07:59:11;;;;;;;0.30;0.30;;;24.30;65.50;;;24.61;50.09;94505.97;5051355;28;20690;-79
2022/08/16 08:01:40;;;;;;;0.35;0.35;;;24.40;65.90;;;24.70;49.88;94503.47;5051406;28;20899;-80
2022/08/16 08:04:11;;;;;;;0.30;0.30;;;24.40;65.70;;;24.77;49.70;94493.97;5035005;28;20204;-77
2022/08/16 08:06:42;;;;;;;0.45;0.45;;;24.50;65.60;;;24.89;49.77;94490.81;5052108;28;20233;-79
2022/08/16 08:09:13;;;;;;;0.30;0.30;;;24.60;65.40;;;25.02;50.03;94491.16;5052335;28;20232;-79
2022/08/16 08:11:44;;;;;;;0.30;0.30;;;24.70;65.90;;;25.14;49.76;94494.16;5052404;28;20488;-80
2022/08/16 08:14:32;;;;;;;0.40;0.40;;;24.80;65.50;;;25.23;49.00;94503.16;5059444;28;20622;-79
2022/08/16 08:17:00;;;;;;;0.32;0.32;;;25.00;64.90;;;25.33;48.61;94502.19;5032808;28;20220;-79
2022/08/16 08:19:30;;;;;;;0.30;0.30;;;25.00;64.60;;;25.37;48.66;94495.16;5031920;28;20227;-80
2022/08/16 08:21:58;;;;;;;0.45;0.45;;;25.10;64.60;;;25.45;48.05;94498.25;5041736;28;20721;-80
2022/08/16 08:24:44;;;;;;;0.32;0.32;;;25.20;64.40;;;25.48;46.74;94519.91;5033768;28;20203;-79
2022/08/16 08:27:13;;;;;;;0.40;0.40;;;25.30;63.50;;;25.59;47.86;94511.69;5017731;28;20748;-79
2022/08/16 08:29:50;;;;;;;0.30;0.30;;;25.30;63.90;;;25.68;48.27;94521.47;5050432;28;20350;-80
2022/08/16 08:32:39;;;;;;;0.30;0.30;;;25.40;63.80;;;25.77;46.57;94520.75;5035990;28;20259;-80
2022/08/16 08:35:31;;;;;;;0.30;0.30;;;25.50;63.50;;;25.86;45.80;94525.13;5066179;28;20654;-78
2022/08/16 08:38:01;;;;;;;0.20;0.20;;;25.70;62.50;;;25.95;46.75;94533.31;5034365;28;20199;-79
2022/08/16 08:40:32;;;;;;;0.30;0.30;;;25.70;63.10;;;26.00;46.33;94519.75;5068007;28;20624;-79
2022/08/16 08:43:00;;;;;;;0.30;0.30;;;25.70;62.60;;;26.07;46.09;94521.28;5051775;28;20607;-80
2022/08/16 08:45:41;;;;;;;0.30;0.30;;;25.80;62.40;;;26.15;47.29;94515.22;5068042;28;20201;-78
2022/08/16 08:48:17;;;;;;;0.30;0.30;;;25.90;63.30;;;26.28;47.06;94506.31;5051747;28;20599;-78
2022/08/16 08:51:08;;;;;;;0.30;0.30;;;26.00;63.20;;;26.40;47.11;94511.16;5017764;28;20238;-78
2022/08/16 08:53:49;;;;;;;0.40;0.40;;;26.10;62.60;;;26.52;46.97;94511.47;5016253;28;20568;-79
2022/08/16 08:56:29;;;;;;;0.40;0.40;;;26.30;62.60;;;26.71;46.82;94515.06;5015300;28;20234;-78
2022/08/16 08:59:05;;;;;;;0.30;0.30;;;26.40;62.80;;;26.84;45.88;94520.44;5015670;28;20548;-79
2022/08/16 09:01:49;;;;;;;0.30;0.30;;;26.50;62.20;;;26.97;45.23;94513.41;5017826;28;20321;-78
2022/08/16 09:04:26;;;;;;;0.20;0.20;;;26.70;61.50;;;27.10;43.67;94519.03;5015892;28;20288;-79
2022/08/16 09:06:55;;;;;;;0.30;0.30;;;26.80;60.70;;;27.20;43.13;94523.38;5016212;28;20239;-79
2022/08/16 09:09:29;;;;;;;0.30;0.30;;;27.00;60.60;;;27.31;43.76;94528.19;5036636;28;20306;-79
2022/08/16 09:12:03;;;;;;;0.30;0.30;;;27.10;60.40;;;27.39;44.06;94528.56;5051975;28;20645;-79
2022/08/16 09:14:54;;;;;;;0.30;0.30;;;27.20;60.60;;;27.47;42.36;94531.31;5050176;28;20209;-79
2022/08/16 09:17:26;;;;;;;0.30;0.30;;;27.30;58.90;;;27.63;42.71;94531.72;5023920;28;20258;-79
2022/08/16 09:20:13;;;;;;;0.30;0.30;;;27.40;59.10;;;27.73;42.73;94527.94;5053717;28;20297;-79
2022/08/16 09:22:43;;;;;;;0.30;0.30;;;27.60;59.30;;;27.91;42.93;94536.91;5035027;28;20219;-79
2022/08/16 09:25:20;;;;;;;0.30;0.30;;;27.70;59.60;;;28.01;40.68;94533.13;5036532;28;20298;-79
2022/08/16 09:28:01;;;;;;;0.40;0.40;;;27.90;57.20;;;28.18;41.67;94532.44;5036207;28;20199;-79
2022/08/16 09:31:05;;;;;;;0.30;0.30;;;28.00;58.20;;;28.40;42.74;94530.75;5052914;28;20707;-79
2022/08/16 09:33:36;;;;;;;0.20;0.20;;;28.20;58.80;;;28.63;42.33;94536.00;5049165;28;20225;-79
2022/08/16 09:36:07;;;;;;;0.40;0.40;;;28.30;58.40;;;28.81;43.02;94524.13;5017690;28;20232;-79
2022/08/16 09:38:56;;;;;;;0.30;0.30;;;28.50;58.60;;;28.99;41.68;94530.34;5023952;28;20202;-77
2022/08/16 09:41:26;;;;;;;0.30;0.30;;;28.70;57.60;;;29.03;40.19;94528.56;5030955;28;20288;-77
2022/08/16 09:43:55;;;;;;;0.30;0.30;;;28.80;56.20;;;29.02;39.50;94529.69;5023422;28;20216;-78
2022/08/16 09:46:27;;;;;;;0.30;0.30;;;28.80;55.30;;;28.99;40.20;94516.84;5030649;28;20303;-78
2022/08/16 09:49:16;;;;;;;0.30;0.30;;;28.90;55.60;;;28.95;40.09;94517.78;5031230;28;20698;-80
2022/08/16 09:51:52;;;;;;;0.30;0.30;;;28.90;55.70;;;28.89;39.50;94515.25;5047378;28;20313;-79
2022/08/16 09:54:22;;;;;;;0.40;0.40;;;28.90;55.10;;;28.92;40.68;94511.91;5024385;28;20217;-78
2022/08/16 09:56:59;;;;;;;0.30;0.30;;;28.90;55.80;;;28.89;40.35;94514.44;5034410;28;20227;-78
2022/08/16 09:59:26;;;;;;;0.30;0.30;;;28.80;55.50;;;28.93;40.02;94518.09;5050831;28;20190;-79
2022/08/16 10:01:57;;;;;;;0.30;0.30;;;28.80;55.70;;;28.89;38.69;94517.13;5049916;28;20217;-78
2022/08/16 10:04:25;;;;;;;0.30;0.30;;;28.80;54.00;;;28.87;39.10;94516.69;5050944;28;20216;-76
2022/08/16 10:07:03;;;;;;;0.30;0.30;;;28.80;54.40;;;28.87;38.91;94519.38;5050873;28;20689;-78
2022/08/16 10:09:44;;;;;;;0.35;0.35;;;28.80;54.30;;;28.94;40.12;94524.28;5035202;28;20232;-77
2022/08/16 10:15:26;;;;;;;0.30;0.30;;;28.80;55.20;;;29.04;39.18;94523.94;5017744;28;20252;-76
2022/08/16 10:17:57;;;;;;;0.30;0.30;;;28.90;55.20;;;29.13;39.28;94522.03;5032838;28;20722;-77
2022/08/16 10:20:33;;;;;;;0.30;0.30;;;28.90;54.60;;;29.18;38.91;94513.00;5020675;28;20671;-78
2022/08/16 10:23:04;;;;;;;0.38;0.38;;;28.90;54.50;;;29.22;39.52;94509.34;5034330;28;20787;-79
2022/08/16 10:25:38;;;;;;;0.30;0.30;;;29.00;54.40;;;29.22;37.95;94514.75;5032079;28;20286;-78
2022/08/16 10:28:27;;;;;;;0.30;0.30;;;29.00;53.50;;;29.26;38.48;94514.09;5032115;28;20208;-77
2022/08/16 10:31:03;;;;;;;0.30;0.30;;;29.00;54.00;;;29.28;37.92;94509.94;5017064;28;20645;-79
2022/08/16 10:33:32;;;;;;;0.30;0.30;;;29.10;53.30;;;29.31;38.53;94517.44;5031904;28;20221;-78
2022/08/16 10:36:05;;;;;;;0.30;0.30;;;29.00;53.70;;;29.36;38.14;94511.09;5016981;28;20222;-77
2022/08/16 10:38:37;;;;;;;0.20;0.20;;;29.10;53.00;;;29.39;37.97;94515.84;5030792;28;20735;-79
2022/08/16 10:41:09;;;;;;;0.40;0.40;;;29.10;53.50;;;29.39;37.17;94522.03;5039283;28;20223;-79
2022/08/16 10:43:42;;;;;;;0.30;0.30;;;29.10;52.20;;;29.36;36.46;94511.09;5033628;28;20205;-79
2022/08/16 10:46:12;;;;;;;0.22;0.22;;;29.20;51.70;;;29.33;37.05;94509.81;5036003;28;20589;-78
2022/08/16 10:48:59;;;;;;;0.30;0.30;;;29.20;52.20;;;29.35;37.84;94512.97;5032604;28;20211;-79
2022/08/16 10:51:27;;;;;;;0.38;0.38;;;29.20;52.80;;;29.43;38.14;94515.97;5024634;28;20471;-78
2022/08/16 10:54:14;;;;;;;0.30;0.30;;;29.20;53.30;;;29.47;37.34;94496.09;5019728;28;20202;-77
2022/08/16 10:56:58;;;;;;;0.30;0.30;;;29.20;51.60;;;29.53;37.25;94502.13;5019016;28;20594;-79
2022/08/16 10:59:28;;;;;;;0.30;0.30;;;29.20;52.50;;;29.58;37.22;94496.56;5033721;28;20193;-79
2022/08/16 11:02:15;;;;;;;0.30;0.30;;;29.30;52.60;;;29.68;37.54;94503.50;5039107;28;20567;-79